Terminal Aerodrome Forecast
Issued by NWS

Home | Current Version | Previous Version | Text Only | Print | Product List | Glossary On
Versions: 1 2 3 4 5 6 7 8 9 10 11 12 13 14 15 16 17 18 19 20 21 22 23 24 25 26 27 28 29 30 31 32 33 34 35 36 37 38 39
000
FTUS46 KOTX 271739
TAFMWH
TAF
KMWH 271739Z 2718/2818 20007KT 4SM BR SCT040 SCT150
     FM271900 20008KT P6SM SCT040 SCT150
     FM272100 20014G22KT P6SM BKN150
     FM280600 20008KT P6SM SCT008 OVC130=

USA.gov is the U.S. government's official web portal to all federal, state and local government web resources and services.